Anzahl Datensätze: 48
min. Temperatur: 13.7 °C
max. Temperatur: 18.4 °C
max. Windgeschwindigkeit: 6.5 km/h
Niederschlagsumme: 0.0 mm
| Datum |
Zeit |
Temp °C |
Feuchte % |
Taupunkt °C |
Luftdruck hPa |
Wind km/h |
Windrichtung |
Strahlung w/m² |
Niederschlag mm |
|---|---|---|---|---|---|---|---|---|---|
| 12.07.2024 | 00:00 | 18.4 | 85 | 15.8 | 1015.7 | 0.0 | WNW | 0 | 0.0 |
| 12.07.2024 | 00:30 | 18.1 | 86 | 15.7 | 1015.6 | 0.0 | WNW | 0 | 0.0 |
| 12.07.2024 | 01:00 | 18.1 | 87 | 15.9 | 1015.2 | 0.0 | WNW | 0 | 0.0 |
| 12.07.2024 | 01:30 | 17.9 | 87 | 15.7 | 1015.0 | 0.0 | WNW | 0 | 0.0 |
| 12.07.2024 | 02:00 | 18.0 | 83 | 15.1 | 1014.7 | 0.0 | O | 0 | 0.0 |
| 12.07.2024 | 02:30 | 17.9 | 81 | 14.6 | 1014.1 | 0.0 | O | 0 | 0.0 |
| 12.07.2024 | 03:00 | 17.9 | 80 | 14.4 | 1013.5 | 0.0 | O | 0 | 0.0 |
| 12.07.2024 | 03:30 | 17.8 | 80 | 14.3 | 1012.9 | 0.0 | NO | 0 | 0.0 |
| 12.07.2024 | 04:00 | 17.9 | 80 | 14.4 | 1012.6 | 0.0 | O | 0 | 0.0 |
| 12.07.2024 | 04:30 | 17.3 | 84 | 14.6 | 1012.4 | 0.0 | NNO | 0 | 0.0 |
| 12.07.2024 | 05:00 | 16.7 | 88 | 14.7 | 1011.9 | 0.0 | WSW | 0 | 0.0 |
| 12.07.2024 | 05:30 | 16.1 | 90 | 14.5 | 1011.8 | 0.0 | WSW | 0 | 0.0 |
| 12.07.2024 | 06:00 | 16.2 | 90 | 14.6 | 1011.4 | 0.0 | SO | 0 | 0.0 |
| 12.07.2024 | 06:30 | 16.0 | 90 | 14.4 | 1010.5 | 0.0 | OSO | 32 | 0.0 |
| 12.07.2024 | 07:00 | 16.4 | 90 | 14.8 | 1010.0 | 0.0 | OSO | 0 | 0.0 |
| 12.07.2024 | 07:30 | 16.5 | 91 | 15.0 | 1009.5 | 0.0 | OSO | 5 | 0.0 |
| 12.07.2024 | 08:00 | 16.5 | 92 | 15.2 | 1009.2 | 0.0 | ONO | 65 | 0.0 |
| 12.07.2024 | 08:30 | 16.9 | 93 | 15.8 | 1008.7 | 0.0 | OSO | 44 | 0.0 |
| 12.07.2024 | 09:00 | 17.1 | 92 | 15.8 | 1008.5 | --- | 83 | 0.0 | |
| 12.07.2024 | 09:30 | 17.6 | 92 | 16.3 | 1008.4 | 0.0 | O | 30 | 0.0 |
| 12.07.2024 | 10:00 | 18.1 | 92 | 16.8 | 1008.2 | 0.0 | WSW | 70 | 0.0 |
| 12.07.2024 | 10:30 | 17.9 | 91 | 16.4 | 1008.8 | 0.0 | WSW | 146 | 0.0 |
| 12.07.2024 | 11:00 | 17.6 | 87 | 15.4 | 1009.6 | 0.0 | NW | 195 | 0.0 |
| 12.07.2024 | 11:30 | 17.4 | 87 | 15.2 | 1010.3 | 0.0 | NNW | 167 | 0.0 |
| 12.07.2024 | 12:00 | 17.4 | 86 | 15.0 | 1010.7 | 0.0 | NNW | 297 | 0.0 |
| 12.07.2024 | 12:30 | 17.3 | 85 | 14.8 | 1011.1 | 0.0 | W | 153 | 0.0 |
| 12.07.2024 | 13:00 | 17.4 | 85 | 14.9 | 1011.5 | 0.0 | WSW | 243 | 0.0 |
| 12.07.2024 | 13:30 | 17.1 | 86 | 14.7 | 1011.8 | 0.0 | NNW | 74 | 0.0 |
| 12.07.2024 | 14:00 | 16.6 | 87 | 14.4 | 1012.2 | 0.0 | NW | 58 | 0.0 |
| 12.07.2024 | 14:30 | 16.2 | 88 | 14.2 | 1012.4 | 0.0 | NNO | 67 | 0.0 |
| 12.07.2024 | 15:00 | 15.9 | 88 | 13.9 | 1012.5 | 0.0 | NNW | 56 | 0.0 |
| 12.07.2024 | 15:30 | 15.4 | 89 | 13.6 | 1012.7 | 0.0 | NW | 56 | 0.0 |
| 12.07.2024 | 16:00 | 15.7 | 88 | 13.7 | 1012.9 | 0.0 | NNW | 62 | 0.0 |
| 12.07.2024 | 16:30 | 15.7 | 87 | 13.5 | 1012.7 | 0.0 | NNW | 86 | 0.0 |
| 12.07.2024 | 17:00 | 15.9 | 85 | 13.4 | 1012.7 | 0.0 | NNW | 81 | 0.0 |
| 12.07.2024 | 17:30 | 15.9 | 85 | 13.4 | 1013.3 | 0.0 | NNW | 47 | 0.0 |
| 12.07.2024 | 18:00 | 15.3 | 86 | 13.0 | 1013.6 | 0.0 | N | 54 | 0.0 |
| 12.07.2024 | 18:30 | 15.3 | 85 | 12.8 | 1013.7 | 0.0 | NNW | 49 | 0.0 |
| 12.07.2024 | 19:00 | 15.3 | 85 | 12.8 | 1013.5 | 0.0 | NW | 53 | 0.0 |
| 12.07.2024 | 19:30 | 15.2 | 85 | 12.7 | 1013.4 | 0.0 | NW | 62 | 0.0 |
| 12.07.2024 | 20:00 | 15.4 | 85 | 12.9 | 1013.6 | 0.0 | WNW | 51 | 0.0 |
| 12.07.2024 | 20:30 | 15.3 | 84 | 12.6 | 1014.1 | 0.0 | NNW | 47 | 0.0 |
| 12.07.2024 | 21:00 | 15.1 | 84 | 12.4 | 1014.0 | 0.0 | NW | 14 | 0.0 |
| 12.07.2024 | 21:30 | 14.8 | 85 | 12.3 | 1014.3 | 0.0 | NNW | 0 | 0.0 |
| 12.07.2024 | 22:00 | 14.4 | 86 | 12.1 | 1014.5 | 0.0 | NNW | 0 | 0.0 |
| 12.07.2024 | 22:30 | 13.9 | 85 | 11.4 | 1014.7 | 0.0 | NW | 0 | 0.0 |
| 12.07.2024 | 23:00 | 13.8 | 85 | 11.3 | 1014.9 | 0.0 | NW | 0 | 0.0 |
| 12.07.2024 | 23:30 | 13.7 | 87 | 11.6 | 1015.4 | 0.0 | NW | 0 | 0.0 |